Oberlin, Kansas
Current Conditions -  °F | °C
As of 1:53 AM on Sunday 23 Nov 2014 (Local Time) from KMCK Reporting Station
Clear Clear  
Wind Chill: 40°   Ceiling: Unl
Heat Index: 44°   Visibility: 10mi
Dew Point: 34°   Wind: 8mph
Humidity: 68%   Direction: 220°SW
Pressure: 29.45"   Gusts: NA
Location:  39.82°N, 100.53°W
Report Text: KMCK 230753Z AUTO 22007KT 10SM CLR 07/01 A2945 RMK AO2 SLP963 T00670011
Loading
Personal Weather Stations






























Interactive Weather Map New forecast layout! Learn more

10-Day Weather Forecast

Advertisements
Track Severe Weather on mobile